Time,TemperatureF,DewpointF,PressureIn,WindDirection,WindDirectionDegrees,WindSpeedMPH,WindSpeedGustMPH,Humidity,HourlyPrecipIn,Conditions,Clouds,dailyrainin,SoftwareType,DateUTC
2013-01-27 00:24:00,15.3,4.3,29.98,NW,315,21.7,-999.0,61,-99.99,,,0.00,Acu-Link.com,2013-01-27 05:24:00,
2013-01-27 00:39:00,14.9,3.6,29.98,NW,315,13.5,-999.0,60,-99.99,,,0.00,Acu-Link.com,2013-01-27 05:39:00,
2013-01-27 00:55:00,14.9,3.6,29.98,NW,315,9.9,-999.0,60,-99.99,,,0.00,Acu-Link.com,2013-01-27 05:55:00,
2013-01-27 01:10:00,14.7,3.4,29.98,NNE,22,15.5,-999.0,60,-99.99,,,0.00,Acu-Link.com,2013-01-27 06:10:00,
2013-01-27 01:25:00,14.9,3.9,29.99,West,270,13.0,-999.0,61,-99.99,,,0.00,Acu-Link.com,2013-01-27 06:25:00,
2013-01-27 01:41:00,14.7,3.0,29.99,North,0,22.2,-999.0,59,-99.99,,,0.00,Acu-Link.com,2013-01-27 06:41:00,
2013-01-27 01:56:00,15.1,4.1,29.99,NNW,337,14.5,-999.0,61,-99.99,,,0.00,Acu-Link.com,2013-01-27 06:56:00,
2013-01-27 02:27:00,15.3,5.3,30.01,NW,315,10.9,-999.0,64,-99.99,,,0.00,Acu-Link.com,2013-01-27 07:27:00,
2013-01-27 02:42:00,15.3,5.0,30.02,NW,315,11.9,-999.0,63,-99.99,,,0.00,Acu-Link.com,2013-01-27 07:42:00,
2013-01-27 02:58:00,15.1,4.5,30.02,NW,315,16.1,-999.0,62,-99.99,,,0.00,Acu-Link.com,2013-01-27 07:58:00,
2013-01-27 03:13:00,14.9,3.9,30.02,NNW,337,13.0,-999.0,61,-99.99,,,0.00,Acu-Link.com,2013-01-27 08:13:00,
2013-01-27 03:28:00,15.1,4.5,30.02,WNW,292,14.5,-999.0,62,-99.99,,,0.00,Acu-Link.com,2013-01-27 08:28:00,
2013-01-27 03:43:00,14.9,3.2,30.03,NNE,22,16.1,-999.0,59,-99.99,,,0.00,Acu-Link.com,2013-01-27 08:43:00,
2013-01-27 03:58:00,15.1,4.1,30.03,NNW,337,13.0,-999.0,61,-99.99,,,0.00,Acu-Link.com,2013-01-27 08:58:00,
2013-01-27 04:16:00,14.7,2.3,30.03,North,0,11.9,-999.0,57,-99.99,,,0.00,Acu-Link.com,2013-01-27 09:16:00,
2013-01-27 04:31:00,15.1,4.1,30.04,NW,315,15.0,-999.0,61,-99.99,,,0.00,Acu-Link.com,2013-01-27 09:31:00,
2013-01-27 04:46:00,14.5,1.3,30.05,NNW,337,12.5,-999.0,55,-99.99,,,0.00,Acu-Link.com,2013-01-27 09:46:00,
2013-01-27 05:01:00,14.4,1.6,30.04,NW,315,14.0,-999.0,56,-99.99,,,0.00,Acu-Link.com,2013-01-27 10:01:00,
2013-01-27 05:17:00,14.5,2.1,30.06,NNW,337,9.4,-999.0,57,-99.99,,,0.00,Acu-Link.com,2013-01-27 10:17:00,
2013-01-27 05:32:00,14.5,1.7,30.07,NNW,337,13.5,-999.0,56,-99.99,,,0.00,Acu-Link.com,2013-01-27 10:32:00,
2013-01-27 05:47:00,14.5,1.7,30.07,NNW,337,10.4,-999.0,56,-99.99,,,0.00,Acu-Link.com,2013-01-27 10:47:00,
2013-01-27 06:02:00,14.0,0.8,30.09,NNE,22,10.4,-999.0,55,-99.99,,,0.00,Acu-Link.com,2013-01-27 11:02:00,
2013-01-27 06:18:00,14.0,1.2,30.09,North,0,12.5,-999.0,56,-99.99,,,0.00,Acu-Link.com,2013-01-27 11:18:00,
2013-01-27 06:33:00,14.2,1.0,30.10,NNE,22,17.1,-999.0,55,-99.99,,,0.00,Acu-Link.com,2013-01-27 11:33:00,
2013-01-27 06:48:00,14.0,1.2,30.09,North,0,15.0,-999.0,56,-99.99,,,0.00,Acu-Link.com,2013-01-27 11:48:00,
2013-01-27 07:03:00,13.6,0.1,30.11,NNW,337,14.0,-999.0,54,-99.99,,,0.00,Acu-Link.com,2013-01-27 12:03:00,
2013-01-27 07:18:00,13.8,0.3,30.12,NNW,337,15.5,-999.0,54,-99.99,,,0.00,Acu-Link.com,2013-01-27 12:18:00,
2013-01-27 07:34:00,14.0,1.2,30.13,NNW,337,16.6,-999.0,56,-99.99,,,0.00,Acu-Link.com,2013-01-27 12:34:00,
2013-01-27 07:49:00,14.4,1.6,30.14,NNW,337,12.5,-999.0,56,-99.99,,,0.00,Acu-Link.com,2013-01-27 12:49:00,
2013-01-27 08:04:00,14.2,0.6,30.15,NW,315,15.0,-999.0,54,-99.99,,,0.00,Acu-Link.com,2013-01-27 13:04:00,
2013-01-27 08:20:00,14.4,0.8,30.15,North,0,13.0,-999.0,54,-99.99,,,0.00,Acu-Link.com,2013-01-27 13:20:00,
2013-01-27 08:35:00,15.3,2.1,30.16,NNW,337,16.1,-999.0,55,-99.99,,,0.00,Acu-Link.com,2013-01-27 13:35:00,
2013-01-27 08:50:00,15.3,1.7,30.16,NW,315,9.4,-999.0,54,-99.99,,,0.00,Acu-Link.com,2013-01-27 13:50:00,
2013-01-27 09:05:00,16.0,2.3,30.18,NNE,22,11.4,-999.0,54,-99.99,,,0.00,Acu-Link.com,2013-01-27 14:05:00,
2013-01-27 09:21:00,16.9,2.4,30.18,NNE,22,8.9,-999.0,52,-99.99,,,0.00,Acu-Link.com,2013-01-27 14:21:00,
2013-01-27 09:36:00,17.1,1.7,30.18,North,0,8.9,-999.0,50,-99.99,,,0.00,Acu-Link.com,2013-01-27 14:36:00,
2013-01-27 09:51:00,18.7,1.4,30.20,NW,315,8.3,-999.0,46,-99.99,,,0.00,Acu-Link.com,2013-01-27 14:51:00,
2013-01-27 10:07:00,19.6,0.8,30.19,NNE,22,5.8,-999.0,43,-99.99,,,0.00,Acu-Link.com,2013-01-27 15:07:00,
2013-01-27 10:22:00,20.3,1.4,30.20,ENE,67,4.7,-999.0,43,-99.99,,,0.00,Acu-Link.com,2013-01-27 15:22:00,
2013-01-27 10:37:00,21.7,3.2,30.19,North,0,6.3,-999.0,44,-99.99,,,0.00,Acu-Link.com,2013-01-27 15:37:00,
2013-01-27 10:53:00,21.2,2.2,30.17,NNW,337,3.2,-999.0,43,-99.99,,,0.00,Acu-Link.com,2013-01-27 15:53:00,
2013-01-27 11:08:00,22.1,3.1,30.19,NNW,337,9.9,-999.0,43,-99.99,,,0.00,Acu-Link.com,2013-01-27 16:08:00,
2013-01-27 11:23:00,22.3,3.7,30.17,NNW,337,8.3,-999.0,44,-99.99,,,0.00,Acu-Link.com,2013-01-27 16:23:00,
2013-01-27 11:38:00,22.5,2.9,30.16,NNW,337,9.4,-999.0,42,-99.99,,,0.00,Acu-Link.com,2013-01-27 16:38:00,
2013-01-27 11:53:00,23.0,3.9,30.15,NNE,22,8.9,-999.0,43,-99.99,,,0.00,Acu-Link.com,2013-01-27 16:53:00,
2013-01-27 12:08:00,23.4,3.2,30.14,NW,315,8.9,-999.0,41,-99.99,,,0.00,Acu-Link.com,2013-01-27 17:08:00,
2013-01-27 12:24:00,23.7,3.0,30.14,North,0,12.5,-999.0,40,-99.99,,,0.00,Acu-Link.com,2013-01-27 17:24:00,
2013-01-27 12:39:00,24.4,4.1,30.14,NNW,337,14.5,-999.0,41,-99.99,,,0.00,Acu-Link.com,2013-01-27 17:39:00,
2013-01-27 12:54:00,24.8,5.0,30.14,NNE,22,11.9,-999.0,42,-99.99,,,0.00,Acu-Link.com,2013-01-27 17:54:00,
2013-01-27 13:10:00,25.0,2.4,30.14,NNW,337,15.0,-999.0,37,-99.99,,,0.00,Acu-Link.com,2013-01-27 18:10:00,
2013-01-27 13:25:00,25.7,4.2,30.13,North,0,17.1,-999.0,39,-99.99,,,0.00,Acu-Link.com,2013-01-27 18:25:00,
2013-01-27 13:40:00,25.7,2.5,30.14,NNE,22,13.0,-999.0,36,-99.99,,,0.00,Acu-Link.com,2013-01-27 18:40:00,
2013-01-27 13:55:00,27.0,5.9,30.15,NW,315,8.3,-999.0,40,-99.99,,,0.00,Acu-Link.com,2013-01-27 18:55:00,
2013-01-27 14:11:00,27.1,3.1,30.14,North,0,13.0,-999.0,35,-99.99,,,0.00,Acu-Link.com,2013-01-27 19:11:00,
2013-01-27 14:26:00,26.8,2.2,30.14,NNW,337,15.5,-999.0,34,-99.99,,,0.00,Acu-Link.com,2013-01-27 19:26:00,
2013-01-27 14:41:00,27.0,3.0,30.15,NNW,337,15.5,-999.0,35,-99.99,,,0.00,Acu-Link.com,2013-01-27 19:41:00,
2013-01-27 14:56:00,27.0,3.6,30.14,NNW,337,13.0,-999.0,36,-99.99,,,0.00,Acu-Link.com,2013-01-27 19:56:00,
2013-01-27 15:11:00,27.1,4.3,30.15,NE,45,13.5,-999.0,37,-99.99,,,0.00,Acu-Link.com,2013-01-27 20:11:00,
2013-01-27 15:27:00,26.6,2.7,30.15,North,0,16.1,-999.0,35,-99.99,,,0.00,Acu-Link.com,2013-01-27 20:27:00,
2013-01-27 15:42:00,26.4,3.1,30.15,NNE,22,17.1,-999.0,36,-99.99,,,0.00,Acu-Link.com,2013-01-27 20:42:00,
2013-01-27 15:58:00,26.1,2.8,30.14,North,0,15.0,-999.0,36,-99.99,,,0.00,Acu-Link.com,2013-01-27 20:58:00,
2013-01-27 16:13:00,25.5,1.7,30.16,NNW,337,19.1,-999.0,35,-99.99,,,0.00,Acu-Link.com,2013-01-27 21:13:00,
2013-01-27 16:28:00,24.6,1.5,30.16,WNW,292,10.4,-999.0,36,-99.99,,,0.00,Acu-Link.com,2013-01-27 21:28:00,
2013-01-27 16:44:00,24.3,2.4,30.18,WNW,292,8.9,-999.0,38,-99.99,,,0.00,Acu-Link.com,2013-01-27 21:44:00,
2013-01-27 16:59:00,24.1,1.1,30.18,NNE,22,11.9,-999.0,36,-99.99,,,0.00,Acu-Link.com,2013-01-27 21:59:00,
2013-01-27 17:14:00,23.9,1.5,30.20,North,0,9.9,-999.0,37,-99.99,,,0.00,Acu-Link.com,2013-01-27 22:14:00,
2013-01-27 17:30:00,23.9,0.9,30.20,North,0,9.9,-999.0,36,-99.99,,,0.00,Acu-Link.com,2013-01-27 22:30:00,
2013-01-27 17:45:00,23.5,-0.1,30.19,NW,315,10.9,-999.0,35,-99.99,,,0.00,Acu-Link.com,2013-01-27 22:45:00,
2013-01-27 18:00:00,23.2,0.8,30.21,NNW,337,9.4,-999.0,37,-99.99,,,0.00,Acu-Link.com,2013-01-27 23:00:00,
2013-01-27 18:16:00,23.0,0.7,30.20,NW,315,11.4,-999.0,37,-99.99,,,0.00,Acu-Link.com,2013-01-27 23:16:00,
2013-01-27 18:31:00,22.5,0.2,30.21,NE,45,12.5,-999.0,37,-99.99,,,0.00,Acu-Link.com,2013-01-27 23:31:00,
2013-01-27 18:46:00,22.1,0.4,30.22,NNW,337,12.5,-999.0,38,-99.99,,,0.00,Acu-Link.com,2013-01-27 23:46:00,
2013-01-27 19:02:00,21.7,-1.1,30.22,NNE,22,7.3,-999.0,36,-99.99,,,0.00,Acu-Link.com,2013-01-28 00:02:00,
2013-01-27 19:17:00,20.7,-1.4,30.23,West,270,3.7,-999.0,37,-99.99,,,0.00,Acu-Link.com,2013-01-28 00:17:00,
2013-01-27 19:32:00,20.5,-1.6,30.24,East,90,7.8,-999.0,37,-99.99,,,0.00,Acu-Link.com,2013-01-28 00:32:00,
2013-01-27 19:47:00,20.3,-2.3,30.24,NW,315,9.9,-999.0,36,-99.99,,,0.00,Acu-Link.com,2013-01-28 00:47:00,
2013-01-27 20:03:00,19.9,-2.1,30.24,North,0,13.0,-999.0,37,-99.99,,,0.00,Acu-Link.com,2013-01-28 01:03:00,
2013-01-27 20:18:00,19.6,-1.8,30.23,NNE,22,7.3,-999.0,38,-99.99,,,0.00,Acu-Link.com,2013-01-28 01:18:00,
2013-01-27 20:33:00,19.0,-2.9,30.25,NNE,22,9.9,-999.0,37,-99.99,,,0.00,Acu-Link.com,2013-01-28 01:33:00,
2013-01-27 20:49:00,18.3,-0.4,30.26,NNE,22,2.7,-999.0,43,-99.99,,,0.00,Acu-Link.com,2013-01-28 01:49:00,
2013-01-27 21:04:00,18.3,-3.0,30.25,North,0,3.2,-999.0,38,-99.99,,,0.00,Acu-Link.com,2013-01-28 02:04:00,
2013-01-27 21:19:00,17.8,-1.9,30.26,WNW,292,8.9,-999.0,41,-99.99,,,0.00,Acu-Link.com,2013-01-28 02:19:00,
2013-01-27 21:35:00,17.8,-2.9,30.24,NNE,22,4.7,-999.0,39,-99.99,,,0.00,Acu-Link.com,2013-01-28 02:35:00,
2013-01-27 21:50:00,17.4,-1.7,30.24,NW,315,4.2,-999.0,42,-99.99,,,0.00,Acu-Link.com,2013-01-28 02:50:00,
2013-01-27 22:05:00,17.2,-1.9,30.23,NE,45,8.3,-999.0,42,-99.99,,,0.00,Acu-Link.com,2013-01-28 03:05:00,
2013-01-27 22:21:00,17.1,-1.5,30.24,West,270,6.8,-999.0,43,-99.99,,,0.00,Acu-Link.com,2013-01-28 03:21:00,
2013-01-27 22:36:00,16.9,-0.7,30.25,ENE,67,3.7,-999.0,45,-99.99,,,0.00,Acu-Link.com,2013-01-28 03:36:00,
2013-01-27 22:51:00,16.7,-0.9,30.26,NW,315,7.8,-999.0,45,-99.99,,,0.00,Acu-Link.com,2013-01-28 03:51:00,
2013-01-27 23:07:00,16.0,-1.1,30.26,NNE,22,4.7,-999.0,46,-99.99,,,0.00,Acu-Link.com,2013-01-28 04:07:00,
2013-01-27 23:22:00,15.6,-2.9,30.26,NNE,22,8.3,-999.0,43,-99.99,,,0.00,Acu-Link.com,2013-01-28 04:22:00,
2013-01-27 23:37:00,15.3,-2.7,30.27,North,0,2.2,-999.0,44,-99.99,,,0.00,Acu-Link.com,2013-01-28 04:37:00,
2013-01-27 23:53:00,16.2,-1.4,30.28,North,0,6.8,-999.0,45,-99.99,,,0.00,Acu-Link.com,2013-01-28 04:53:00,